QTR237 OTHH-LTFM
Flight info
| Callsign | QTR237 |
|---|---|
| Flight time | N/A |
| Altitude | 32000 |
| Route | LUBET L934 DAVUS/N0484F400 L602 GADSI M860 SEPTU DCT VUSEB M860 NINVA UM860 NAREN UG81 UMLEN UL718 ETESU UT888 SIV UA4 ERSEN ERSEN1B/17L |
| Aircraft | B77L/H-SDE1E2E3FGHIJ2J3J4J5M1RWXY/LB1D1 |
Departure
| Time | N/A |
|---|---|
| Airport | Hamad International Airport (OTHH) |
Arrival
| Time | 2026-02-19 12:34 |
|---|---|
| Airport | İstanbul Airport (LTFM) |
| Time | Latitude | Longitude | Altitude | Speed | Heading |
|---|---|---|---|---|---|
| 2026-02-19 12:10 | 40.93739 | 30.21325 | 27195 ft | 386 kts | 306° |
| 2026-02-19 12:11 | 40.95545 | 30.18674 | 26796 ft | 391 kts | 315° |
| 2026-02-19 12:11 | 40.97601 | 30.16304 | 26374 ft | 394 kts | 317° |
| 2026-02-19 12:11 | 40.99600 | 30.14082 | 25994 ft | 396 kts | 317° |
| 2026-02-19 12:11 | 41.01693 | 30.11771 | 25645 ft | 397 kts | 317° |
| 2026-02-19 12:12 | 41.03810 | 30.09422 | 25361 ft | 396 kts | 317° |
| 2026-02-19 12:12 | 41.07999 | 30.04721 | 24843 ft | 392 kts | 316° |
| 2026-02-19 12:12 | 41.10069 | 30.02375 | 24577 ft | 391 kts | 316° |
| 2026-02-19 12:13 | 41.12163 | 29.99995 | 24307 ft | 390 kts | 316° |
| 2026-02-19 12:13 | 41.14195 | 29.97680 | 24046 ft | 390 kts | 316° |
| 2026-02-19 12:13 | 41.16254 | 29.95329 | 23773 ft | 389 kts | 316° |
| 2026-02-19 12:13 | 41.18310 | 29.92980 | 23474 ft | 388 kts | 316° |
| 2026-02-19 12:14 | 41.20331 | 29.90668 | 23190 ft | 387 kts | 316° |
| 2026-02-19 12:14 | 41.22396 | 29.88305 | 22901 ft | 385 kts | 316° |
| 2026-02-19 12:14 | 41.24423 | 29.85982 | 22220 ft | 385 kts | 316° |
| 2026-02-19 12:14 | 41.26414 | 29.83701 | 21564 ft | 379 kts | 316° |
| 2026-02-19 12:15 | 41.28398 | 29.81425 | 20905 ft | 375 kts | 316° |
| 2026-02-19 12:15 | 41.30361 | 29.79173 | 20276 ft | 370 kts | 316° |
| 2026-02-19 12:15 | 41.32299 | 29.76945 | 19668 ft | 366 kts | 316° |
| 2026-02-19 12:15 | 41.34220 | 29.74736 | 19056 ft | 363 kts | 316° |
| 2026-02-19 12:16 | 41.36121 | 29.72548 | 18445 ft | 360 kts | 316° |
| 2026-02-19 12:16 | 41.39884 | 29.68210 | 17121 ft | 354 kts | 316° |
| 2026-02-19 12:16 | 41.41736 | 29.66072 | 16522 ft | 350 kts | 316° |
| 2026-02-19 12:17 | 41.43568 | 29.63956 | 15923 ft | 347 kts | 316° |
| 2026-02-19 12:17 | 41.45362 | 29.61883 | 15430 ft | 341 kts | 316° |
| 2026-02-19 12:17 | 41.47131 | 29.59839 | 15133 ft | 330 kts | 316° |
| 2026-02-19 12:17 | 41.48841 | 29.57861 | 14831 ft | 320 kts | 316° |
| 2026-02-19 12:18 | 41.50508 | 29.55930 | 14451 ft | 313 kts | 316° |
| 2026-02-19 12:18 | 41.52143 | 29.54033 | 13995 ft | 310 kts | 316° |
| 2026-02-19 12:18 | 41.53745 | 29.52171 | 13419 ft | 307 kts | 315° |
| 2026-02-19 12:18 | 41.55055 | 29.49986 | 12666 ft | 302 kts | 294° |
| 2026-02-19 12:19 | 41.55679 | 29.47337 | 12273 ft | 296 kts | 282° |
| 2026-02-19 12:19 | 41.55947 | 29.44638 | 11876 ft | 291 kts | 276° |
| 2026-02-19 12:19 | 41.56079 | 29.41961 | 11490 ft | 286 kts | 274° |
| 2026-02-19 12:19 | 41.56179 | 29.39320 | 11109 ft | 282 kts | 274° |
| 2026-02-19 12:20 | 41.56273 | 29.36762 | 10742 ft | 278 kts | 274° |
| 2026-02-19 12:20 | 41.56471 | 29.31677 | 9987 ft | 270 kts | 274° |
| 2026-02-19 12:20 | 41.56574 | 29.29191 | 9584 ft | 267 kts | 275° |
| 2026-02-19 12:21 | 41.56677 | 29.26738 | 9178 ft | 263 kts | 274° |
| 2026-02-19 12:21 | 41.56781 | 29.24313 | 8779 ft | 260 kts | 274° |
| 2026-02-19 12:21 | 41.56885 | 29.21915 | 8388 ft | 256 kts | 274° |
| 2026-02-19 12:21 | 41.56986 | 29.19557 | 7994 ft | 253 kts | 274° |
| 2026-02-19 12:22 | 41.57086 | 29.17248 | 7906 ft | 246 kts | 274° |
| 2026-02-19 12:22 | 41.57185 | 29.14960 | 7878 ft | 248 kts | 274° |
| 2026-02-19 12:22 | 41.57284 | 29.12673 | 7611 ft | 251 kts | 274° |
| 2026-02-19 12:22 | 41.57385 | 29.10347 | 7304 ft | 248 kts | 274° |
| 2026-02-19 12:23 | 41.57482 | 29.08073 | 6992 ft | 242 kts | 274° |
| 2026-02-19 12:23 | 41.57575 | 29.05869 | 6770 ft | 232 kts | 274° |
| 2026-02-19 12:23 | 41.57666 | 29.03744 | 6458 ft | 225 kts | 274° |
| 2026-02-19 12:23 | 41.57753 | 29.01683 | 6138 ft | 219 kts | 274° |
| 2026-02-19 12:24 | 41.57839 | 28.99672 | 5807 ft | 214 kts | 274° |
| 2026-02-19 12:24 | 41.58000 | 28.95842 | 5429 ft | 202 kts | 274° |
| 2026-02-19 12:24 | 41.58079 | 28.93951 | 5251 ft | 205 kts | 273° |
| 2026-02-19 12:25 | 41.58159 | 28.92028 | 5106 ft | 206 kts | 273° |
| 2026-02-19 12:25 | 41.58238 | 28.90118 | 5058 ft | 206 kts | 273° |
| 2026-02-19 12:25 | 41.58316 | 28.88227 | 5003 ft | 207 kts | 273° |
| 2026-02-19 12:25 | 41.58395 | 28.86310 | 4998 ft | 207 kts | 273° |
| 2026-02-19 12:26 | 41.58474 | 28.84389 | 5000 ft | 207 kts | 273° |
| 2026-02-19 12:26 | 41.58552 | 28.82466 | 4996 ft | 207 kts | 272° |
| 2026-02-19 12:26 | 41.58252 | 28.80622 | 4990 ft | 207 kts | 243° |
| 2026-02-19 12:26 | 41.57525 | 28.78951 | 5001 ft | 211 kts | 243° |
| 2026-02-19 12:27 | 41.56811 | 28.77215 | 4999 ft | 215 kts | 243° |
| 2026-02-19 12:27 | 41.56104 | 28.75462 | 4995 ft | 212 kts | 244° |
| 2026-02-19 12:27 | 41.55398 | 28.73782 | 4976 ft | 208 kts | 236° |
| 2026-02-19 12:27 | 41.54227 | 28.72628 | 4986 ft | 218 kts | 201° |
| 2026-02-19 12:28 | 41.52699 | 28.72323 | 4810 ft | 227 kts | 187° |
| 2026-02-19 12:28 | 41.49659 | 28.72312 | 4201 ft | 207 kts | 183° |
| 2026-02-19 12:28 | 41.48260 | 28.72345 | 3922 ft | 195 kts | 183° |
| 2026-02-19 12:29 | 41.46917 | 28.72373 | 3672 ft | 191 kts | 184° |
| 2026-02-19 12:29 | 41.45606 | 28.72398 | 3416 ft | 189 kts | 184° |
| 2026-02-19 12:29 | 41.44312 | 28.72423 | 3151 ft | 181 kts | 183° |
| 2026-02-19 12:29 | 41.43078 | 28.72448 | 2896 ft | 174 kts | 182° |
| 2026-02-19 12:30 | 41.41877 | 28.72471 | 2667 ft | 169 kts | 182° |
| 2026-02-19 12:30 | 41.40737 | 28.72495 | 2431 ft | 158 kts | 182° |
| 2026-02-19 12:30 | 41.40024 | 28.72508 | 2289 ft | 154 kts | 182° |
| 2026-02-19 12:30 | 41.38948 | 28.72527 | 2086 ft | 155 kts | 182° |
| 2026-02-19 12:31 | 41.37888 | 28.72549 | 1896 ft | 149 kts | 182° |
| 2026-02-19 12:31 | 41.36863 | 28.72569 | 1664 ft | 144 kts | 181° |
| 2026-02-19 12:31 | 41.35885 | 28.72589 | 1483 ft | 136 kts | 182° |
| 2026-02-19 12:31 | 41.34959 | 28.72607 | 1304 ft | 130 kts | 182° |
| 2026-02-19 12:32 | 41.34048 | 28.72624 | 1103 ft | 131 kts | 183° |
| 2026-02-19 12:32 | 41.32290 | 28.72657 | 734 ft | 125 kts | 182° |
| 2026-02-19 12:32 | 41.31399 | 28.72679 | 571 ft | 130 kts | 181° |
| 2026-02-19 12:33 | 41.30497 | 28.72706 | 427 ft | 127 kts | 182° |
| 2026-02-19 12:33 | 41.29580 | 28.72717 | 385 ft | 134 kts | 184° |
| 2026-02-19 12:33 | 41.28695 | 28.72723 | 338 ft | 122 kts | 181° |
| 2026-02-19 12:33 | 41.27948 | 28.72735 | 336 ft | 90 kts | 178° |
| 2026-02-19 12:34 | 41.27450 | 28.72743 | 335 ft | 50 kts | 179° |
| 2026-02-19 12:34 | 41.27136 | 28.72756 | 334 ft | 41 kts | 179° |
| 2026-02-19 12:34 | 41.26868 | 28.72759 | 336 ft | 36 kts | 180° |
| 2026-02-19 12:34 | 41.26662 | 28.72761 | 335 ft | 18 kts | 178° |
| 2026-02-19 12:35 | 41.26601 | 28.72811 | 334 ft | 10 kts | 113° |
| 2026-02-19 12:35 | 41.26596 | 28.72911 | 335 ft | 12 kts | 90° |
| 2026-02-19 12:35 | 41.26597 | 28.73032 | 335 ft | 14 kts | 89° |
| 2026-02-19 12:35 | 41.26599 | 28.73169 | 335 ft | 16 kts | 89° |
| 2026-02-19 12:36 | 41.26582 | 28.73288 | 335 ft | 12 kts | 137° |
| 2026-02-19 12:36 | 41.26428 | 28.73364 | 337 ft | 11 kts | 162° |
| 2026-02-19 12:36 | 41.26371 | 28.73388 | 334 ft | 9 kts | 162° |
| 2026-02-19 12:37 | 41.26299 | 28.73422 | 333 ft | 15 kts | 157° |
| 2026-02-19 12:37 | 41.26225 | 28.73391 | 334 ft | 12 kts | 250° |
| 2026-02-19 12:37 | 41.26217 | 28.73277 | 336 ft | 12 kts | 278° |
| 2026-02-19 12:37 | 41.26282 | 28.73231 | 334 ft | 12 kts | 1° |
| 2026-02-19 12:38 | 41.26400 | 28.73234 | 336 ft | 19 kts | 1° |
| 2026-02-19 12:38 | 41.26538 | 28.73225 | 337 ft | 21 kts | 357° |
| 2026-02-19 12:38 | 41.26680 | 28.73225 | 337 ft | 21 kts | 0° |
| 2026-02-19 12:38 | 41.26823 | 28.73221 | 334 ft | 17 kts | 358° |
| 2026-02-19 12:39 | 41.26876 | 28.73300 | 333 ft | 13 kts | 92° |
| 2026-02-19 12:39 | 41.26870 | 28.73411 | 335 ft | 9 kts | 98° |
| 2026-02-19 12:39 | 41.26824 | 28.73440 | 334 ft | 7 kts | 176° |
| 2026-02-19 12:39 | 41.26791 | 28.73441 | 334 ft | 2 kts | 179° |
| 2026-02-19 12:40 | 41.26783 | 28.73442 | 334 ft | 0 kts | 179° |